Time;durP1;ratioP1;P1;durP2;ratioP2;P2;SDS_P1;SDS_P2;PMS_P1;PMS_P2;Temp;Humidity;BMP_temperature;BMP_pressure;BME280_temperature;BME280_humidity;BME280_pressure;Samples;Min_cycle;Max_cycle;Signal;HPM_P1;HPM_P2
2023/06/11 00:01:57;;;;;;;12.43;5.82;;;20.10;99.90;;;;;;4935887;29;20107;-75
2023/06/11 00:04:27;;;;;;;13.95;5.38;;;20.00;99.90;;;;;;4935675;29;20040;-74
2023/06/11 00:06:54;;;;;;;14.07;5.03;;;20.00;99.90;;;;;;4935769;29;20031;-76
2023/06/11 00:09:22;;;;;;;11.57;5.10;;;20.10;99.90;;;;;;4948165;29;20046;-77
2023/06/11 00:11:47;;;;;;;12.20;5.85;;;20.10;99.90;;;;;;4953480;29;20027;-74
2023/06/11 00:14:13;;;;;;;12.13;5.40;;;20.00;99.90;;;;;;4953361;29;20034;-75
2023/06/11 00:16:43;;;;;;;14.40;5.68;;;20.10;99.90;;;;;;4953016;29;20026;-77
2023/06/11 00:19:09;;;;;;;14.57;6.40;;;20.00;99.90;;;;;;4951118;29;20027;-76
2023/06/11 00:21:36;;;;;;;13.75;5.28;;;20.00;99.90;;;;;;4936030;29;20029;-74
2023/06/11 00:24:02;;;;;;;12.00;5.60;;;20.00;99.90;;;;;;4953243;29;20019;-74
2023/06/11 00:26:28;;;;;;;14.88;6.10;;;20.00;99.90;;;;;;4953176;29;20019;-75
2023/06/11 00:28:53;;;;;;;14.45;5.88;;;20.00;99.90;;;;;;4952961;29;20035;-75
2023/06/11 00:31:19;;;;;;;11.05;5.72;;;19.90;99.90;;;;;;4952964;29;20039;-75
2023/06/11 00:33:44;;;;;;;12.88;6.00;;;19.90;99.90;;;;;;4953233;29;20055;-76
2023/06/11 00:36:11;;;;;;;12.95;5.93;;;19.90;99.90;;;;;;4952801;29;20439;-75
2023/06/11 00:38:36;;;;;;;14.13;5.95;;;19.80;99.90;;;;;;4953328;29;20070;-74
2023/06/11 00:41:02;;;;;;;13.30;6.05;;;19.90;99.90;;;;;;4949741;29;20035;-76
2023/06/11 00:43:28;;;;;;;10.55;5.57;;;19.80;99.90;;;;;;4935701;29;20126;-75
2023/06/11 00:45:54;;;;;;;16.10;6.03;;;19.80;99.90;;;;;;4952702;29;20034;-74
2023/06/11 00:48:20;;;;;;;13.20;5.75;;;19.80;99.90;;;;;;4952780;28;20041;-76
2023/06/11 00:50:50;;;;;;;11.52;5.47;;;19.70;99.90;;;;;;4949813;29;20071;-74
2023/06/11 00:53:21;;;;;;;14.52;6.47;;;19.70;99.90;;;;;;4949994;29;20373;-75
2023/06/11 00:55:48;;;;;;;16.17;5.75;;;19.70;99.90;;;;;;4950266;29;20352;-73
2023/06/11 00:58:17;;;;;;;14.07;5.80;;;19.70;99.90;;;;;;4952619;28;20042;-74
2023/06/11 01:00:49;;;;;;;13.82;6.00;;;19.70;99.90;;;;;;4952477;29;20023;-77
2023/06/11 01:03:21;;;;;;;15.63;5.97;;;19.70;99.90;;;;;;4952861;29;20031;-76
2023/06/11 01:06:01;;;;;;;13.90;6.07;;;19.70;99.90;;;;;;4950572;29;20038;-75
2023/06/11 01:08:30;;;;;;;13.02;5.93;;;19.60;99.90;;;;;;4952996;29;20043;-74
2023/06/11 01:10:59;;;;;;;13.88;5.80;;;19.60;99.90;;;;;;4936317;29;20467;-76
2023/06/11 01:13:25;;;;;;;17.30;6.68;;;19.60;99.90;;;;;;4953127;29;20114;-75
2023/06/11 01:16:00;;;;;;;11.98;5.85;;;19.50;99.90;;;;;;4936483;29;20118;-75
2023/06/11 01:18:28;;;;;;;14.27;6.25;;;19.50;99.90;;;;;;4953422;28;20042;-77
2023/06/11 01:21:07;;;;;;;13.73;5.85;;;19.50;99.90;;;;;;4953393;28;20375;-74
2023/06/11 01:23:43;;;;;;;11.05;5.82;;;19.50;99.90;;;;;;4953630;29;20039;-74
2023/06/11 01:26:25;;;;;;;16.85;6.07;;;19.50;99.90;;;;;;4952682;29;20020;-75
2023/06/11 01:28:56;;;;;;;12.57;6.15;;;19.40;99.90;;;;;;4933467;29;20078;-75
2023/06/11 01:31:25;;;;;;;15.38;6.20;;;19.40;99.90;;;;;;4951694;29;20613;-74
2023/06/11 01:33:51;;;;;;;11.13;6.47;;;19.40;99.90;;;;;;4952264;29;20026;-74
2023/06/11 01:36:17;;;;;;;18.52;6.72;;;19.30;99.90;;;;;;4952753;29;20110;-72
2023/06/11 01:38:44;;;;;;;13.45;5.95;;;19.30;99.90;;;;;;4952818;29;20077;-75
2023/06/11 01:41:11;;;;;;;13.48;5.93;;;19.30;99.90;;;;;;4952318;29;20123;-73
2023/06/11 01:43:37;;;;;;;15.13;6.22;;;19.30;99.90;;;;;;4953093;29;20035;-75
2023/06/11 01:46:03;;;;;;;15.55;6.15;;;19.30;99.90;;;;;;4942280;29;20031;-72
2023/06/11 01:48:29;;;;;;;14.48;6.32;;;19.30;99.90;;;;;;4934376;29;20040;-74
2023/06/11 01:50:54;;;;;;;11.65;5.68;;;19.30;99.90;;;;;;4934646;29;20424;-75
2023/06/11 01:53:20;;;;;;;13.25;6.55;;;19.20;99.90;;;;;;4934421;29;20035;-75
2023/06/11 01:55:46;;;;;;;15.88;6.50;;;19.20;99.90;;;;;;4934110;29;20023;-74
2023/06/11 01:58:12;;;;;;;14.15;6.78;;;19.20;99.90;;;;;;4934471;29;20024;-75
2023/06/11 02:00:37;;;;;;;13.50;6.65;;;19.20;99.90;;;;;;4935800;29;20031;-74
2023/06/11 02:03:05;;;;;;;11.60;6.72;;;19.20;99.90;;;;;;4937720;29;20199;-75
2023/06/11 02:05:30;;;;;;;16.23;6.93;;;19.20;99.90;;;;;;4937945;29;20024;-74
2023/06/11 02:07:56;;;;;;;17.83;6.88;;;19.10;99.90;;;;;;4937410;29;20031;-74
2023/06/11 02:10:22;;;;;;;14.13;7.00;;;19.10;99.90;;;;;;4937675;29;20043;-76
2023/06/11 02:12:47;;;;;;;12.57;7.05;;;19.10;99.90;;;;;;4937616;29;20028;-76
2023/06/11 02:15:13;;;;;;;10.40;6.28;;;19.10;99.90;;;;;;4938673;29;20459;-73
2023/06/11 02:17:38;;;;;;;15.15;7.03;;;19.00;99.90;;;;;;4956886;29;20098;-74
2023/06/11 02:20:06;;;;;;;13.82;6.45;;;19.00;99.90;;;;;;4956640;29;20031;-76
2023/06/11 02:22:33;;;;;;;15.30;6.78;;;19.00;99.90;;;;;;4956701;29;20020;-74
2023/06/11 02:24:59;;;;;;;14.68;6.63;;;19.00;99.90;;;;;;4956536;29;20033;-74
2023/06/11 02:27:24;;;;;;;15.32;6.90;;;19.00;99.90;;;;;;4956420;29;20109;-75
2023/06/11 02:29:50;;;;;;;18.60;7.45;;;19.00;99.90;;;;;;4956541;29;20031;-74
2023/06/11 02:32:16;;;;;;;17.63;7.75;;;18.90;99.90;;;;;;4956173;29;20463;-72
2023/06/11 02:34:41;;;;;;;14.73;7.50;;;18.90;99.90;;;;;;4956429;29;20039;-73
2023/06/11 02:37:08;;;;;;;14.13;7.07;;;18.90;99.90;;;;;;4956394;29;20020;-73
2023/06/11 02:39:33;;;;;;;16.27;7.47;;;18.90;99.90;;;;;;4955978;29;20059;-72
2023/06/11 02:41:59;;;;;;;19.95;8.48;;;18.90;99.90;;;;;;4956102;29;20110;-74
2023/06/11 02:44:25;;;;;;;15.80;7.93;;;18.80;99.90;;;;;;4955384;29;20106;-75
2023/06/11 02:46:51;;;;;;;16.45;8.07;;;18.80;99.90;;;;;;4956217;29;20039;-75
2023/06/11 02:49:16;;;;;;;16.15;7.50;;;18.80;99.90;;;;;;4938808;29;20057;-75
2023/06/11 02:51:42;;;;;;;16.08;8.13;;;18.70;99.90;;;;;;4956247;29;20079;-74
2023/06/11 02:54:08;;;;;;;22.92;8.60;;;18.80;99.90;;;;;;4955837;29;20031;-74
2023/06/11 02:56:33;;;;;;;18.90;8.18;;;18.70;99.90;;;;;;4955958;29;20039;-75
2023/06/11 02:58:59;;;;;;;15.85;8.18;;;18.70;99.90;;;;;;4956025;29;20031;-74
2023/06/11 03:01:25;;;;;;;18.63;7.85;;;18.70;99.90;;;;;;4955869;29;20074;-73
2023/06/11 03:03:50;;;;;;;17.92;8.45;;;18.70;99.90;;;;;;4938653;29;20463;-76
2023/06/11 03:06:16;;;;;;;18.65;9.00;;;18.70;99.90;;;;;;4956073;29;20035;-75
2023/06/11 03:08:41;;;;;;;14.45;8.52;;;18.70;99.90;;;;;;4955524;29;20054;-76
2023/06/11 03:11:07;;;;;;;16.98;9.30;;;18.70;99.90;;;;;;4955477;29;20106;-73
2023/06/11 03:13:32;;;;;;;16.30;8.18;;;18.70;99.90;;;;;;4955055;28;20476;-73
2023/06/11 03:15:58;;;;;;;15.80;8.93;;;18.70;99.90;;;;;;4955492;29;20130;-73
2023/06/11 03:18:23;;;;;;;15.27;8.63;;;18.70;99.90;;;;;;4955735;29;20043;-74
2023/06/11 03:20:49;;;;;;;16.38;8.60;;;18.70;99.90;;;;;;4955738;29;20068;-74
2023/06/11 03:23:15;;;;;;;17.67;8.98;;;18.70;99.90;;;;;;4955767;29;20039;-74
2023/06/11 03:25:41;;;;;;;16.83;8.63;;;18.80;99.90;;;;;;4955260;29;20110;-74
2023/06/11 03:28:07;;;;;;;13.60;8.13;;;18.80;99.90;;;;;;4955160;29;20510;-75
2023/06/11 03:30:32;;;;;;;15.68;8.35;;;18.80;99.90;;;;;;4955024;29;20035;-75
2023/06/11 03:32:58;;;;;;;17.50;8.60;;;18.80;99.90;;;;;;4954898;29;20035;-74
2023/06/11 03:35:24;;;;;;;17.98;8.25;;;18.80;99.90;;;;;;4955169;29;20039;-74
2023/06/11 03:37:49;;;;;;;15.23;8.35;;;18.80;99.90;;;;;;4955266;29;20083;-75
2023/06/11 03:40:15;;;;;;;16.70;8.20;;;18.90;99.90;;;;;;4954685;29;20023;-75
2023/06/11 03:42:41;;;;;;;15.48;7.68;;;18.90;99.90;;;;;;4955119;29;20059;-73
2023/06/11 03:45:07;;;;;;;14.00;7.65;;;18.90;99.90;;;;;;4955058;29;20039;-75
2023/06/11 03:47:32;;;;;;;16.35;8.35;;;18.90;99.90;;;;;;4955250;29;20090;-74
2023/06/11 03:49:58;;;;;;;16.90;8.50;;;19.00;99.90;;;;;;4955312;29;20035;-75
2023/06/11 03:52:23;;;;;;;16.20;7.97;;;19.00;99.90;;;;;;4955245;29;20036;-75
2023/06/11 03:54:49;;;;;;;12.55;7.50;;;19.00;99.90;;;;;;4954878;29;20442;-74
2023/06/11 03:57:17;;;;;;;13.32;7.53;;;19.00;99.90;;;;;;4954798;29;20032;-73
2023/06/11 03:59:43;;;;;;;13.30;8.10;;;19.10;99.90;;;;;;4954792;29;20471;-75
2023/06/11 04:02:08;;;;;;;13.25;7.85;;;19.10;99.90;;;;;;4954670;29;20023;-73
2023/06/11 04:04:34;;;;;;;13.80;8.30;;;19.20;99.90;;;;;;4954949;29;20031;-73
2023/06/11 04:07:00;;;;;;;13.93;8.00;;;19.20;99.90;;;;;;4954990;29;20035;-75
2023/06/11 04:09:25;;;;;;;13.60;7.85;;;19.20;99.90;;;;;;4937528;29;20035;-74
2023/06/11 04:11:51;;;;;;;16.17;8.07;;;19.30;99.90;;;;;;4954956;29;20455;-74
2023/06/11 04:14:16;;;;;;;17.48;8.23;;;19.30;99.90;;;;;;4954752;29;20374;-74
2023/06/11 04:16:42;;;;;;;14.65;8.13;;;19.40;99.90;;;;;;4954778;29;20398;-75
2023/06/11 04:19:08;;;;;;;15.00;8.35;;;19.40;99.90;;;;;;4937678;29;20514;-73
2023/06/11 04:21:33;;;;;;;12.90;8.15;;;19.50;99.90;;;;;;4955052;29;20392;-75
2023/06/11 04:23:59;;;;;;;15.75;8.40;;;19.50;99.90;;;;;;4954301;28;20040;-73
2023/06/11 04:26:25;;;;;;;14.18;7.65;;;19.60;99.90;;;;;;4954653;29;20039;-76
2023/06/11 04:28:52;;;;;;;15.73;8.20;;;19.70;99.90;;;;;;4954509;29;20038;-75
2023/06/11 04:31:18;;;;;;;15.15;8.43;;;19.70;99.90;;;;;;4954751;29;20523;-75
2023/06/11 04:33:45;;;;;;;13.02;8.13;;;19.80;99.90;;;;;;4937308;29;20174;-74
2023/06/11 04:36:11;;;;;;;13.35;8.65;;;19.90;99.90;;;;;;4954478;29;20052;-74
2023/06/11 04:38:38;;;;;;;14.15;8.15;;;19.90;99.90;;;;;;4954247;29;20035;-76
2023/06/11 04:41:11;;;;;;;13.63;8.10;;;20.00;99.90;;;;;;4954357;29;20031;-73
2023/06/11 04:43:37;;;;;;;13.48;8.20;;;20.10;99.90;;;;;;4954409;29;20035;-76
2023/06/11 04:46:03;;;;;;;13.60;8.10;;;20.20;99.90;;;;;;4954345;29;20031;-76
2023/06/11 04:48:31;;;;;;;16.30;8.30;;;20.30;99.90;;;;;;4954595;29;20054;-74
2023/06/11 04:50:59;;;;;;;14.00;8.02;;;20.40;99.90;;;;;;4954139;29;20027;-76
2023/06/11 04:53:27;;;;;;;14.77;8.52;;;20.50;99.90;;;;;;4954272;29;20038;-76
2023/06/11 04:55:54;;;;;;;13.38;7.78;;;20.60;99.90;;;;;;4954354;29;20027;-74
2023/06/11 04:58:27;;;;;;;14.23;8.02;;;20.70;99.90;;;;;;4954637;29;20085;-75
2023/06/11 05:00:57;;;;;;;13.05;7.70;;;20.70;99.90;;;;;;4936952;29;20382;-73
2023/06/11 05:03:31;;;;;;;13.93;8.07;;;20.80;99.90;;;;;;4953728;29;20027;-75
2023/06/11 05:05:57;;;;;;;13.68;8.52;;;21.00;99.90;;;;;;4954325;29;20023;-75
2023/06/11 05:08:25;;;;;;;13.02;7.75;;;21.10;99.90;;;;;;4954471;29;20074;-76
2023/06/11 05:10:51;;;;;;;13.48;7.28;;;21.30;99.90;;;;;;4954435;29;20032;-74
2023/06/11 05:13:26;;;;;;;17.40;7.85;;;21.40;99.90;;;;;;4954260;29;20023;-73
2023/06/11 05:15:55;;;;;;;12.77;7.47;;;21.60;99.90;;;;;;4954304;29;20031;-76
2023/06/11 05:18:23;;;;;;;14.98;7.95;;;21.80;99.90;;;;;;4954139;29;20156;-75
2023/06/11 05:20:49;;;;;;;11.02;7.50;;;21.90;99.90;;;;;;4954130;29;20387;-76
2023/06/11 05:23:15;;;;;;;12.20;7.72;;;22.10;99.90;;;;;;4954187;29;20027;-74
2023/06/11 05:25:46;;;;;;;14.23;7.45;;;22.40;99.90;;;;;;4936965;29;20118;-74
2023/06/11 05:28:16;;;;;;;18.55;8.60;;;22.80;99.90;;;;;;4936814;29;20437;-75
2023/06/11 05:30:45;;;;;;;17.60;8.18;;;23.40;99.90;;;;;;4954067;29;20127;-75
2023/06/11 05:33:12;;;;;;;11.48;7.45;;;24.00;99.90;;;;;;4953998;29;20435;-76
2023/06/11 05:35:38;;;;;;;11.85;7.50;;;24.70;99.50;;;;;;4955561;28;20028;-74
2023/06/11 05:38:06;;;;;;;12.02;7.63;;;25.40;98.30;;;;;;4957863;29;20101;-75
2023/06/11 05:40:32;;;;;;;15.48;8.15;;;26.10;97.40;;;;;;4958145;29;20081;-76
2023/06/11 05:42:58;;;;;;;13.57;7.65;;;26.80;96.40;;;;;;4957289;29;20051;-73
2023/06/11 05:45:25;;;;;;;12.73;7.47;;;27.60;95.50;;;;;;4957557;29;20077;-74
2023/06/11 05:47:50;;;;;;;15.85;9.85;;;28.50;94.60;;;;;;4957494;29;20034;-74
2023/06/11 05:50:16;;;;;;;15.82;9.20;;;29.30;93.60;;;;;;4957286;29;20039;-74
2023/06/11 05:52:42;;;;;;;14.43;7.85;;;30.10;92.70;;;;;;4956105;28;20031;-75
2023/06/11 05:55:07;;;;;;;13.02;7.57;;;30.70;91.30;;;;;;4956800;28;20031;-74
2023/06/11 05:57:33;;;;;;;14.75;7.28;;;31.00;90.30;;;;;;4960488;28;21268;-72
2023/06/11 05:59:58;;;;;;;8.68;6.70;;;31.30;90.10;;;;;;4961586;28;20054;-73
2023/06/11 06:02:24;;;;;;;10.00;7.05;;;31.80;89.00;;;;;;4964055;28;20058;-74
2023/06/11 06:04:50;;;;;;;11.80;6.63;;;32.30;87.00;;;;;;4957285;28;20383;-76
2023/06/11 06:07:18;;;;;;;11.23;6.90;;;32.60;85.90;;;;;;4957110;28;20043;-75
2023/06/11 06:09:44;;;;;;;13.52;7.28;;;32.80;85.10;;;;;;4966422;28;20526;-74
2023/06/11 06:12:10;;;;;;;11.40;7.20;;;33.00;83.80;;;;;;4970623;28;20015;-74
2023/06/11 06:14:36;;;;;;;8.80;6.85;;;33.40;82.90;;;;;;4948922;29;20027;-74
2023/06/11 06:17:01;;;;;;;15.65;7.28;;;34.00;82.30;;;;;;4950146;29;20416;-73
2023/06/11 06:19:27;;;;;;;13.57;6.93;;;34.20;81.00;;;;;;4951922;28;20090;-75
2023/06/11 06:21:52;;;;;;;10.55;6.90;;;34.60;80.50;;;;;;4967506;28;20467;-75
2023/06/11 06:24:18;;;;;;;10.57;7.05;;;35.10;79.20;;;;;;4956840;29;20427;-74
2023/06/11 06:26:44;;;;;;;9.35;6.68;;;35.50;77.80;;;;;;4954050;29;20460;-75
2023/06/11 06:29:12;;;;;;;10.05;6.40;;;35.50;77.50;;;;;;4943498;29;20464;-73
2023/06/11 06:31:38;;;;;;;12.48;7.32;;;35.40;77.10;;;;;;4957015;28;20094;-74
2023/06/11 06:34:04;;;;;;;8.75;6.40;;;35.30;76.60;;;;;;4967226;28;20479;-74
2023/06/11 06:36:29;;;;;;;12.05;6.53;;;35.60;76.20;;;;;;4956642;29;20026;-75
2023/06/11 06:38:55;;;;;;;8.75;6.47;;;35.90;75.40;;;;;;4952786;29;20475;-74
2023/06/11 06:41:21;;;;;;;12.80;7.10;;;36.30;75.10;;;;;;4944130;29;20020;-74
2023/06/11 06:43:46;;;;;;;10.77;6.60;;;36.60;74.30;;;;;;4939064;29;20035;-75
2023/06/11 06:46:12;;;;;;;11.07;6.40;;;37.00;73.90;;;;;;4956269;28;20031;-76
2023/06/11 06:48:38;;;;;;;11.85;6.60;;;37.30;73.00;;;;;;4955591;29;20376;-75
2023/06/11 06:51:03;;;;;;;9.23;6.78;;;37.40;72.00;;;;;;4956285;29;20115;-74
2023/06/11 06:53:29;;;;;;;11.82;6.32;;;37.20;71.70;;;;;;4956346;29;20032;-74
2023/06/11 06:55:55;;;;;;;11.23;7.28;;;37.00;71.90;;;;;;4938576;29;20023;-77
2023/06/11 06:58:20;;;;;;;9.13;6.15;;;37.20;71.40;;;;;;4956480;29;20029;-75
2023/06/11 07:00:46;;;;;;;11.27;7.22;;;37.40;71.40;;;;;;4955228;28;20055;-75
2023/06/11 07:03:13;;;;;;;17.05;9.75;;;37.80;71.10;;;;;;4943405;28;20022;-75
2023/06/11 07:05:40;;;;;;;11.45;8.00;;;38.20;70.70;;;;;;4960881;28;20062;-75
2023/06/11 07:08:05;;;;;;;14.18;7.00;;;38.80;70.10;;;;;;4955738;29;20027;-75
2023/06/11 07:10:31;;;;;;;16.25;8.90;;;39.30;68.60;;;;;;4956317;28;20395;-75
2023/06/11 07:12:56;;;;;;;17.10;8.85;;;39.40;68.20;;;;;;4960679;28;20149;-75
2023/06/11 07:15:22;;;;;;;16.30;9.15;;;39.20;68.10;;;;;;4955186;29;20154;-75
2023/06/11 07:17:48;;;;;;;13.95;8.18;;;39.10;68.40;;;;;;4955486;29;20372;-76
2023/06/11 07:20:13;;;;;;;20.42;10.00;;;39.00;68.20;;;;;;4954214;29;20298;-77
2023/06/11 07:22:39;;;;;;;12.95;7.97;;;38.90;68.00;;;;;;4955633;29;20031;-75
2023/06/11 07:25:06;;;;;;;17.40;7.32;;;38.60;68.40;;;;;;4958977;28;20091;-76
2023/06/11 07:27:32;;;;;;;14.80;7.53;;;38.30;68.40;;;;;;4958252;28;20459;-76
2023/06/11 07:29:57;;;;;;;16.23;8.40;;;38.20;68.70;;;;;;4957857;28;20095;-75
2023/06/11 07:32:23;;;;;;;11.10;6.90;;;38.40;68.50;;;;;;4959906;28;20085;-76
2023/06/11 07:34:48;;;;;;;10.30;6.60;;;38.60;68.20;;;;;;4954782;29;20493;-75
2023/06/11 07:37:14;;;;;;;12.60;6.78;;;38.80;67.90;;;;;;4954973;29;20102;-77
2023/06/11 07:39:40;;;;;;;11.68;6.55;;;38.70;67.70;;;;;;4954660;29;20034;-76
2023/06/11 07:42:06;;;;;;;9.82;6.72;;;38.70;67.50;;;;;;4954049;29;20043;-76
2023/06/11 07:44:33;;;;;;;12.00;7.13;;;38.70;67.70;;;;;;4959947;28;20031;-77
2023/06/11 07:46:59;;;;;;;9.60;6.63;;;38.60;67.50;;;;;;4938872;28;20031;-75
2023/06/11 07:49:25;;;;;;;11.82;6.93;;;38.30;67.80;;;;;;4953527;28;20098;-75
2023/06/11 07:51:51;;;;;;;11.65;6.82;;;38.30;68.00;;;;;;4954535;29;20074;-76
2023/06/11 07:54:17;;;;;;;10.15;6.65;;;38.10;67.90;;;;;;4957997;28;20037;-75
2023/06/11 07:56:46;;;;;;;12.20;6.93;;;37.60;68.70;;;;;;4934181;29;20471;-76
2023/06/11 07:59:12;;;;;;;11.35;7.07;;;37.20;69.20;;;;;;4954180;28;20034;-73
2023/06/11 08:01:38;;;;;;;9.40;6.45;;;36.80;69.40;;;;;;4958644;28;20027;-74
2023/06/11 08:04:04;;;;;;;12.63;6.85;;;36.20;70.50;;;;;;4953407;29;20031;-74
2023/06/11 08:06:30;;;;;;;11.93;6.55;;;35.80;70.80;;;;;;4955101;29;20055;-75
2023/06/11 08:08:56;;;;;;;11.98;7.07;;;35.40;71.90;;;;;;4954376;29;20043;-75
2023/06/11 08:11:22;;;;;;;9.50;6.43;;;35.10;72.60;;;;;;4947667;28;20027;-75
2023/06/11 08:13:47;;;;;;;13.10;6.82;;;35.00;72.60;;;;;;4942123;29;20019;-74
2023/06/11 08:16:15;;;;;;;9.93;6.63;;;35.00;72.80;;;;;;4952497;29;20037;-76
2023/06/11 08:18:40;;;;;;;9.13;6.90;;;35.40;72.30;;;;;;4953389;29;20059;-75
2023/06/11 08:21:06;;;;;;;11.85;6.50;;;36.00;71.90;;;;;;4949596;28;20065;-77
2023/06/11 08:23:35;;;;;;;9.27;6.45;;;36.70;71.00;;;;;;4954132;29;20031;-75
2023/06/11 08:26:01;;;;;;;9.35;6.38;;;37.50;70.50;;;;;;4953033;29;20122;-77
2023/06/11 08:28:27;;;;;;;10.27;7.00;;;38.30;69.10;;;;;;4951934;28;20535;-77
2023/06/11 08:30:54;;;;;;;7.50;6.25;;;39.00;68.40;;;;;;4954493;29;20023;-78
2023/06/11 08:33:20;;;;;;;11.27;6.55;;;39.60;68.10;;;;;;4951288;29;20051;-77
2023/06/11 08:35:47;;;;;;;8.55;6.10;;;40.30;67.00;;;;;;4953736;29;20061;-75
2023/06/11 08:38:12;;;;;;;9.88;6.28;;;40.90;66.00;;;;;;4949736;29;20419;-75
2023/06/11 08:40:40;;;;;;;7.93;6.03;;;41.40;65.40;;;;;;4953054;29;20047;-75
2023/06/11 08:43:10;;;;;;;9.18;5.80;;;42.00;64.10;;;;;;4953106;29;20049;-76
2023/06/11 08:45:36;;;;;;;8.18;5.80;;;42.30;63.70;;;;;;4953658;29;20467;-75
2023/06/11 08:48:03;;;;;;;8.80;6.47;;;42.70;63.50;;;;;;4953272;29;20040;-77
2023/06/11 08:50:31;;;;;;;8.80;5.85;;;43.20;63.10;;;;;;4950708;29;20503;-75
2023/06/11 08:53:01;;;;;;;10.60;6.25;;;43.80;62.60;;;;;;4950908;29;20023;-78
2023/06/11 08:55:28;;;;;;;9.55;6.00;;;44.10;61.80;;;;;;4953710;29;20028;-76
2023/06/11 08:57:54;;;;;;;11.18;6.00;;;44.40;61.40;;;;;;4951200;29;20035;-76
2023/06/11 09:00:21;;;;;;;10.95;6.15;;;44.60;60.60;;;;;;4953965;29;20381;-77
2023/06/11 09:02:47;;;;;;;8.80;6.00;;;44.60;60.60;;;;;;4953136;29;20430;-75
2023/06/11 09:05:12;;;;;;;6.88;5.68;;;44.70;60.50;;;;;;4953832;29;20115;-75
2023/06/11 09:07:46;;;;;;;8.55;6.05;;;45.10;59.80;;;;;;4953825;29;20131;-75
2023/06/11 09:10:12;;;;;;;8.73;6.20;;;45.50;59.10;;;;;;4954718;28;20463;-77
2023/06/11 09:12:37;;;;;;;8.23;5.72;;;45.10;58.90;;;;;;4957765;29;20069;-75
2023/06/11 09:15:04;;;;;;;7.72;5.45;;;45.00;58.50;;;;;;4954249;29;20023;-76
2023/06/11 09:17:35;;;;;;;9.93;5.95;;;44.90;58.70;;;;;;4938837;29;20039;-74
2023/06/11 09:20:07;;;;;;;7.78;5.72;;;44.80;58.70;;;;;;4957252;29;20023;-75
2023/06/11 09:22:35;;;;;;;7.43;5.55;;;45.00;58.50;;;;;;4958175;29;20371;-75
2023/06/11 09:25:09;;;;;;;9.07;6.10;;;45.20;58.10;;;;;;4957552;29;20019;-77
2023/06/11 09:27:39;;;;;;;9.68;6.38;;;45.50;58.00;;;;;;4958149;29;20078;-75
2023/06/11 09:30:18;;;;;;;8.57;6.07;;;45.90;57.70;;;;;;4957019;29;20507;-79
2023/06/11 09:32:45;;;;;;;6.60;5.90;;;46.50;57.60;;;;;;4948713;29;20032;-75
2023/06/11 09:35:13;;;;;;;9.85;6.30;;;46.90;56.40;;;;;;4952694;29;20087;-79
2023/06/11 09:37:49;;;;;;;9.90;6.35;;;47.30;56.40;;;;;;4957406;29;20052;-78
2023/06/11 09:40:17;;;;;;;8.10;6.80;;;47.50;56.30;;;;;;4956573;29;20027;-74
2023/06/11 09:42:44;;;;;;;8.73;6.78;;;47.40;56.20;;;;;;4954226;29;20138;-76
2023/06/11 09:45:19;;;;;;;10.20;6.93;;;47.30;56.00;;;;;;4956881;29;20023;-78
2023/06/11 09:47:46;;;;;;;8.82;6.43;;;47.40;55.70;;;;;;4957427;29;20031;-74
2023/06/11 09:50:17;;;;;;;8.32;6.10;;;47.30;55.30;;;;;;4956728;29;20542;-77
2023/06/11 09:52:43;;;;;;;9.05;6.10;;;47.20;55.20;;;;;;4956898;29;20035;-74
2023/06/11 09:55:10;;;;;;;9.55;6.50;;;47.30;55.10;;;;;;4956494;29;20809;-76
2023/06/11 09:57:38;;;;;;;9.10;6.53;;;47.20;54.60;;;;;;4955771;29;20027;-77
2023/06/11 10:00:09;;;;;;;11.90;6.13;;;47.20;54.50;;;;;;4957340;29;20024;-75
2023/06/11 10:02:35;;;;;;;8.55;6.45;;;46.70;54.60;;;;;;4956341;29;20043;-74
2023/06/11 10:05:01;;;;;;;7.78;5.97;;;46.50;54.60;;;;;;4949727;29;20111;-77
2023/06/11 10:07:31;;;;;;;7.63;6.25;;;46.30;54.80;;;;;;4956917;29;20067;-76
2023/06/11 10:09:56;;;;;;;8.70;6.32;;;45.90;55.10;;;;;;4957042;29;20089;-77
2023/06/11 10:12:22;;;;;;;8.93;6.47;;;45.50;55.30;;;;;;4956900;29;20098;-74
2023/06/11 10:14:56;;;;;;;9.27;6.70;;;45.50;55.30;;;;;;4955476;29;20452;-77
2023/06/11 10:17:22;;;;;;;10.73;6.97;;;45.70;55.20;;;;;;4948602;29;20071;-74
2023/06/11 10:19:49;;;;;;;11.02;6.57;;;45.80;55.30;;;;;;4956806;29;20039;-74
2023/06/11 10:22:21;;;;;;;8.98;6.53;;;45.80;55.20;;;;;;4954846;28;20055;-74
2023/06/11 10:24:57;;;;;;;8.77;6.10;;;45.70;55.20;;;;;;4956889;29;20031;-75
2023/06/11 10:27:34;;;;;;;7.68;5.68;;;45.70;55.10;;;;;;4956782;29;20035;-75
2023/06/11 10:30:00;;;;;;;9.82;6.05;;;45.70;54.70;;;;;;4956042;29;20082;-76
2023/06/11 10:32:26;;;;;;;9.95;6.68;;;45.70;55.20;;;;;;4956067;29;20039;-73
2023/06/11 10:35:03;;;;;;;9.88;6.13;;;45.60;55.10;;;;;;4955996;29;20024;-75
2023/06/11 10:37:31;;;;;;;6.93;5.90;;;45.60;55.10;;;;;;4955980;29;20031;-74
2023/06/11 10:39:57;;;;;;;10.40;6.35;;;45.80;54.70;;;;;;4956332;28;20038;-77
2023/06/11 10:42:25;;;;;;;8.73;5.60;;;45.90;54.80;;;;;;4956274;29;20071;-75
2023/06/11 10:44:55;;;;;;;8.18;6.28;;;45.90;54.50;;;;;;4950490;29;20380;-75
2023/06/11 10:47:21;;;;;;;9.27;5.82;;;45.80;54.80;;;;;;4952249;29;20035;-73
2023/06/11 10:49:47;;;;;;;11.63;6.25;;;45.60;54.80;;;;;;4954802;29;20538;-78
2023/06/11 10:52:13;;;;;;;10.00;5.75;;;45.60;54.80;;;;;;4953636;29;20042;-74
2023/06/11 10:54:41;;;;;;;8.40;5.80;;;45.60;54.60;;;;;;4955768;29;20024;-75
2023/06/11 10:57:08;;;;;;;11.27;5.97;;;45.70;54.80;;;;;;4952798;29;20034;-76
2023/06/11 10:59:34;;;;;;;10.73;6.30;;;45.60;54.50;;;;;;4955695;28;20043;-73
2023/06/11 11:02:00;;;;;;;9.15;6.25;;;45.30;54.70;;;;;;4953240;29;20772;-74
2023/06/11 11:04:26;;;;;;;8.55;5.97;;;44.90;54.90;;;;;;4955624;29;20034;-75
2023/06/11 11:07:07;;;;;;;9.38;6.07;;;44.70;55.50;;;;;;4955091;29;20023;-74
2023/06/11 11:09:33;;;;;;;8.15;6.00;;;44.80;55.50;;;;;;4953795;29;20053;-78
2023/06/11 11:11:59;;;;;;;8.07;6.30;;;44.90;55.90;;;;;;4955459;29;20058;-75
2023/06/11 11:14:27;;;;;;;8.40;6.57;;;44.80;55.40;;;;;;4955484;29;20106;-76
2023/06/11 11:16:53;;;;;;;8.77;5.88;;;44.70;55.60;;;;;;4951075;29;20396;-75
2023/06/11 11:19:24;;;;;;;8.13;5.78;;;44.90;55.10;;;;;;4955360;29;20032;-75
2023/06/11 11:21:51;;;;;;;9.05;6.35;;;44.80;55.40;;;;;;4955698;29;20486;-75
2023/06/11 11:24:17;;;;;;;9.52;6.53;;;44.90;55.20;;;;;;4955523;29;20031;-74
2023/06/11 11:26:44;;;;;;;7.72;6.00;;;45.00;55.30;;;;;;4955017;29;20379;-74
2023/06/11 11:29:09;;;;;;;8.15;6.00;;;44.90;55.40;;;;;;4954687;29;20031;-76
2023/06/11 11:31:36;;;;;;;8.65;6.15;;;44.90;55.20;;;;;;4955657;29;20383;-75
2023/06/11 11:34:01;;;;;;;9.55;6.30;;;44.90;55.40;;;;;;4954967;28;20031;-75
2023/06/11 11:36:27;;;;;;;8.90;5.85;;;44.90;55.20;;;;;;4955044;29;20030;-75
2023/06/11 11:38:53;;;;;;;10.52;6.18;;;45.10;55.20;;;;;;4955037;29;20039;-74
2023/06/11 11:41:22;;;;;;;9.52;6.50;;;45.20;55.00;;;;;;4954533;28;20110;-77
2023/06/11 11:43:49;;;;;;;8.18;6.00;;;45.30;55.20;;;;;;4955162;28;20023;-75
2023/06/11 11:46:16;;;;;;;8.35;6.63;;;45.50;55.10;;;;;;4955543;29;20031;-75
2023/06/11 11:48:42;;;;;;;10.13;6.43;;;45.60;54.90;;;;;;4955045;29;20027;-75
2023/06/11 11:51:08;;;;;;;8.52;6.53;;;45.60;55.30;;;;;;4954393;29;20082;-77
2023/06/11 11:53:34;;;;;;;8.38;6.65;;;45.50;55.30;;;;;;4955118;29;20037;-74
2023/06/11 11:55:59;;;;;;;7.93;5.93;;;45.60;55.40;;;;;;4954232;28;20034;-74
2023/06/11 11:58:25;;;;;;;7.75;5.90;;;45.60;55.00;;;;;;4954542;29;20032;-73
2023/06/11 12:00:56;;;;;;;10.30;6.13;;;45.40;55.40;;;;;;4953377;28;20058;-76
2023/06/11 12:03:22;;;;;;;8.80;6.15;;;45.50;55.40;;;;;;4950684;29;20432;-74
2023/06/11 12:06:00;;;;;;;9.45;6.38;;;45.70;54.80;;;;;;4954548;29;20037;-74
2023/06/11 12:08:27;;;;;;;7.07;5.78;;;45.80;54.30;;;;;;4954912;29;20150;-74
2023/06/11 12:10:54;;;;;;;7.75;5.25;;;45.80;54.60;;;;;;4937838;29;20031;-76
2023/06/11 12:13:19;;;;;;;7.97;5.65;;;45.50;54.00;;;;;;4936151;29;20058;-74
2023/06/11 12:15:45;;;;;;;11.45;5.75;;;45.30;54.50;;;;;;4945025;29;20467;-75
2023/06/11 12:18:11;;;;;;;6.28;5.18;;;45.40;54.30;;;;;;4937723;29;20071;-74
2023/06/11 12:20:36;;;;;;;8.20;5.43;;;45.30;53.90;;;;;;4935382;29;20032;-74
2023/06/11 12:23:03;;;;;;;7.03;4.95;;;45.10;53.70;;;;;;4944722;29;20114;-78
2023/06/11 12:25:30;;;;;;;7.50;5.07;;;45.10;53.60;;;;;;4954493;29;20027;-75
2023/06/11 12:27:56;;;;;;;8.43;5.28;;;45.10;54.20;;;;;;4954292;29;20031;-74
2023/06/11 12:30:22;;;;;;;6.70;5.47;;;45.10;53.50;;;;;;4954402;29;20039;-77
2023/06/11 12:32:47;;;;;;;10.43;6.07;;;45.10;53.90;;;;;;4954076;29;20454;-74
2023/06/11 12:35:13;;;;;;;11.32;5.60;;;44.70;54.20;;;;;;4954485;29;20050;-76
2023/06/11 12:37:39;;;;;;;9.50;5.57;;;44.40;54.60;;;;;;4954342;29;20035;-78
2023/06/11 12:40:05;;;;;;;6.85;5.30;;;44.30;53.80;;;;;;4953773;29;20039;-76